sensor_id;sensor_type;location;lat;lon;timestamp;P1;durP1;ratioP1;P2;durP2;ratioP2
20427;SDS011;10373;49.768;18.302;2022-08-19T00:00:34;9.88;;;8.98;;
20427;SDS011;10373;49.768;18.302;2022-08-19T00:03:01;9.75;;;8.85;;
20427;SDS011;10373;49.768;18.302;2022-08-19T00:05:26;10.65;;;9.55;;
20427;SDS011;10373;49.768;18.302;2022-08-19T00:07:52;10.70;;;9.70;;
20427;SDS011;10373;49.768;18.302;2022-08-19T00:10:18;10.60;;;9.52;;
20427;SDS011;10373;49.768;18.302;2022-08-19T00:12:45;10.63;;;9.55;;
20427;SDS011;10373;49.768;18.302;2022-08-19T00:15:12;9.90;;;9.00;;
20427;SDS011;10373;49.768;18.302;2022-08-19T00:17:42;11.40;;;10.20;;
20427;SDS011;10373;49.768;18.302;2022-08-19T00:20:16;11.52;;;10.20;;
20427;SDS011;10373;49.768;18.302;2022-08-19T00:22:44;10.20;;;9.20;;
20427;SDS011;10373;49.768;18.302;2022-08-19T00:25:10;10.85;;;9.77;;
20427;SDS011;10373;49.768;18.302;2022-08-19T00:27:36;11.18;;;10.10;;
20427;SDS011;10373;49.768;18.302;2022-08-19T00:30:03;10.70;;;9.70;;
20427;SDS011;10373;49.768;18.302;2022-08-19T00:32:30;10.95;;;9.95;;
20427;SDS011;10373;49.768;18.302;2022-08-19T00:34:56;10.57;;;9.63;;
20427;SDS011;10373;49.768;18.302;2022-08-19T00:37:23;10.10;;;9.20;;
20427;SDS011;10373;49.768;18.302;2022-08-19T00:39:50;10.95;;;9.98;;
20427;SDS011;10373;49.768;18.302;2022-08-19T00:42:17;10.50;;;9.50;;
20427;SDS011;10373;49.768;18.302;2022-08-19T00:44:43;11.65;;;10.45;;
20427;SDS011;10373;49.768;18.302;2022-08-19T00:47:09;11.15;;;9.95;;
20427;SDS011;10373;49.768;18.302;2022-08-19T00:49:37;10.32;;;9.10;;
20427;SDS011;10373;49.768;18.302;2022-08-19T00:52:12;11.32;;;10.20;;
20427;SDS011;10373;49.768;18.302;2022-08-19T00:54:41;10.80;;;9.90;;
20427;SDS011;10373;49.768;18.302;2022-08-19T00:57:09;10.80;;;9.80;;
20427;SDS011;10373;49.768;18.302;2022-08-19T00:59:39;11.05;;;9.95;;
20427;SDS011;10373;49.768;18.302;2022-08-19T01:02:07;10.07;;;9.20;;
20427;SDS011;10373;49.768;18.302;2022-08-19T01:04:32;11.77;;;10.73;;
20427;SDS011;10373;49.768;18.302;2022-08-19T01:06:58;10.45;;;9.55;;
20427;SDS011;10373;49.768;18.302;2022-08-19T01:09:24;11.57;;;10.40;;
20427;SDS011;10373;49.768;18.302;2022-08-19T01:11:50;11.63;;;10.43;;
20427;SDS011;10373;49.768;18.302;2022-08-19T01:14:17;12.43;;;11.18;;
20427;SDS011;10373;49.768;18.302;2022-08-19T01:16:43;10.63;;;9.63;;
20427;SDS011;10373;49.768;18.302;2022-08-19T01:19:26;10.85;;;9.85;;
20427;SDS011;10373;49.768;18.302;2022-08-19T01:21:57;12.70;;;10.60;;
20427;SDS011;10373;49.768;18.302;2022-08-19T01:24:30;11.45;;;10.30;;
20427;SDS011;10373;49.768;18.302;2022-08-19T01:26:56;10.43;;;9.43;;
20427;SDS011;10373;49.768;18.302;2022-08-19T01:29:22;10.75;;;9.75;;
20427;SDS011;10373;49.768;18.302;2022-08-19T01:31:48;11.38;;;10.27;;
20427;SDS011;10373;49.768;18.302;2022-08-19T01:34:18;11.30;;;10.25;;
20427;SDS011;10373;49.768;18.302;2022-08-19T01:36:45;12.45;;;11.25;;
20427;SDS011;10373;49.768;18.302;2022-08-19T01:39:19;11.10;;;10.02;;
20427;SDS011;10373;49.768;18.302;2022-08-19T01:41:52;11.15;;;10.07;;
20427;SDS011;10373;49.768;18.302;2022-08-19T01:44:20;11.15;;;10.15;;
20427;SDS011;10373;49.768;18.302;2022-08-19T01:46:49;11.15;;;10.05;;
20427;SDS011;10373;49.768;18.302;2022-08-19T01:49:17;11.65;;;10.55;;
20427;SDS011;10373;49.768;18.302;2022-08-19T01:51:44;10.95;;;9.98;;
20427;SDS011;10373;49.768;18.302;2022-08-19T01:54:11;11.70;;;10.60;;
20427;SDS011;10373;49.768;18.302;2022-08-19T01:56:40;11.55;;;10.45;;
20427;SDS011;10373;49.768;18.302;2022-08-19T01:59:08;11.75;;;10.55;;
20427;SDS011;10373;49.768;18.302;2022-08-19T02:01:37;10.80;;;9.80;;
20427;SDS011;10373;49.768;18.302;2022-08-19T02:04:02;11.57;;;10.48;;
20427;SDS011;10373;49.768;18.302;2022-08-19T02:06:28;11.57;;;10.50;;
20427;SDS011;10373;49.768;18.302;2022-08-19T02:08:54;10.85;;;9.85;;
20427;SDS011;10373;49.768;18.302;2022-08-19T02:11:22;11.25;;;10.15;;
20427;SDS011;10373;49.768;18.302;2022-08-19T02:13:51;11.70;;;10.60;;
20427;SDS011;10373;49.768;18.302;2022-08-19T02:16:18;11.18;;;10.18;;
20427;SDS011;10373;49.768;18.302;2022-08-19T02:18:45;10.40;;;9.32;;
20427;SDS011;10373;49.768;18.302;2022-08-19T02:21:13;10.98;;;9.90;;
20427;SDS011;10373;49.768;18.302;2022-08-19T02:23:40;11.57;;;10.35;;
20427;SDS011;10373;49.768;18.302;2022-08-19T02:26:06;12.23;;;11.10;;
20427;SDS011;10373;49.768;18.302;2022-08-19T02:28:32;11.25;;;10.25;;
20427;SDS011;10373;49.768;18.302;2022-08-19T02:30:58;11.60;;;10.50;;
20427;SDS011;10373;49.768;18.302;2022-08-19T02:33:25;11.65;;;10.55;;
20427;SDS011;10373;49.768;18.302;2022-08-19T02:35:51;11.88;;;10.68;;
20427;SDS011;10373;49.768;18.302;2022-08-19T02:38:17;12.15;;;10.90;;
20427;SDS011;10373;49.768;18.302;2022-08-19T02:40:53;11.68;;;10.48;;
20427;SDS011;10373;49.768;18.302;2022-08-19T02:43:25;11.77;;;10.57;;
20427;SDS011;10373;49.768;18.302;2022-08-19T02:45:52;10.73;;;9.70;;
20427;SDS011;10373;49.768;18.302;2022-08-19T02:48:18;11.30;;;10.20;;
20427;SDS011;10373;49.768;18.302;2022-08-19T02:50:46;11.23;;;10.23;;
20427;SDS011;10373;49.768;18.302;2022-08-19T02:53:12;11.50;;;10.30;;
20427;SDS011;10373;49.768;18.302;2022-08-19T02:55:47;10.55;;;9.55;;
20427;SDS011;10373;49.768;18.302;2022-08-19T02:58:14;11.45;;;10.25;;
20427;SDS011;10373;49.768;18.302;2022-08-19T03:00:44;11.35;;;9.73;;
20427;SDS011;10373;49.768;18.302;2022-08-19T03:03:12;11.18;;;10.18;;
20427;SDS011;10373;49.768;18.302;2022-08-19T03:05:38;11.65;;;10.55;;
20427;SDS011;10373;49.768;18.302;2022-08-19T03:08:04;10.75;;;9.65;;
20427;SDS011;10373;49.768;18.302;2022-08-19T03:10:31;12.52;;;11.40;;
20427;SDS011;10373;49.768;18.302;2022-08-19T03:12:57;11.77;;;10.65;;
20427;SDS011;10373;49.768;18.302;2022-08-19T03:15:23;11.27;;;10.27;;
20427;SDS011;10373;49.768;18.302;2022-08-19T03:17:49;11.98;;;10.88;;
20427;SDS011;10373;49.768;18.302;2022-08-19T03:20:14;10.48;;;9.57;;
20427;SDS011;10373;49.768;18.302;2022-08-19T03:22:40;11.10;;;10.10;;
20427;SDS011;10373;49.768;18.302;2022-08-19T03:25:06;10.85;;;9.85;;
20427;SDS011;10373;49.768;18.302;2022-08-19T03:27:31;13.48;;;9.95;;
20427;SDS011;10373;49.768;18.302;2022-08-19T03:29:57;11.40;;;10.40;;
20427;SDS011;10373;49.768;18.302;2022-08-19T03:32:23;11.63;;;10.52;;
20427;SDS011;10373;49.768;18.302;2022-08-19T03:34:48;12.98;;;10.27;;
20427;SDS011;10373;49.768;18.302;2022-08-19T03:37:15;11.50;;;10.43;;
20427;SDS011;10373;49.768;18.302;2022-08-19T03:39:41;11.27;;;10.20;;
20427;SDS011;10373;49.768;18.302;2022-08-19T03:42:08;10.80;;;9.90;;
20427;SDS011;10373;49.768;18.302;2022-08-19T03:44:34;11.35;;;10.30;;
20427;SDS011;10373;49.768;18.302;2022-08-19T03:47:02;11.13;;;10.13;;
20427;SDS011;10373;49.768;18.302;2022-08-19T03:49:30;10.57;;;9.57;;
20427;SDS011;10373;49.768;18.302;2022-08-19T03:51:58;11.63;;;10.52;;
20427;SDS011;10373;49.768;18.302;2022-08-19T03:54:29;11.55;;;10.45;;
20427;SDS011;10373;49.768;18.302;2022-08-19T03:56:55;12.27;;;11.07;;
20427;SDS011;10373;49.768;18.302;2022-08-19T03:59:26;11.35;;;10.27;;
20427;SDS011;10373;49.768;18.302;2022-08-19T04:01:56;10.95;;;10.05;;
20427;SDS011;10373;49.768;18.302;2022-08-19T04:04:24;11.15;;;10.05;;
20427;SDS011;10373;49.768;18.302;2022-08-19T04:06:51;11.60;;;10.50;;
20427;SDS011;10373;49.768;18.302;2022-08-19T04:09:17;11.15;;;10.02;;
20427;SDS011;10373;49.768;18.302;2022-08-19T04:11:45;10.63;;;9.65;;
20427;SDS011;10373;49.768;18.302;2022-08-19T04:14:17;11.05;;;9.95;;
20427;SDS011;10373;49.768;18.302;2022-08-19T04:16:45;11.65;;;10.55;;
20427;SDS011;10373;49.768;18.302;2022-08-19T04:19:12;11.55;;;10.52;;
20427;SDS011;10373;49.768;18.302;2022-08-19T04:21:38;11.35;;;10.25;;
20427;SDS011;10373;49.768;18.302;2022-08-19T04:24:04;11.68;;;10.23;;
20427;SDS011;10373;49.768;18.302;2022-08-19T04:26:32;12.00;;;10.82;;
20427;SDS011;10373;49.768;18.302;2022-08-19T04:29:00;11.63;;;10.43;;
20427;SDS011;10373;49.768;18.302;2022-08-19T04:31:29;11.38;;;10.18;;
20427;SDS011;10373;49.768;18.302;2022-08-19T04:33:57;12.98;;;10.20;;
20427;SDS011;10373;49.768;18.302;2022-08-19T04:36:25;10.63;;;9.63;;
20427;SDS011;10373;49.768;18.302;2022-08-19T04:38:54;11.68;;;10.38;;
20427;SDS011;10373;49.768;18.302;2022-08-19T04:41:22;10.98;;;9.82;;
20427;SDS011;10373;49.768;18.302;2022-08-19T04:44:06;10.55;;;9.55;;
20427;SDS011;10373;49.768;18.302;2022-08-19T04:46:33;10.85;;;9.82;;
20427;SDS011;10373;49.768;18.302;2022-08-19T04:48:59;10.35;;;9.35;;
20427;SDS011;10373;49.768;18.302;2022-08-19T04:51:26;10.95;;;9.95;;
20427;SDS011;10373;49.768;18.302;2022-08-19T04:53:52;11.45;;;10.32;;
20427;SDS011;10373;49.768;18.302;2022-08-19T04:56:18;10.35;;;9.45;;
20427;SDS011;10373;49.768;18.302;2022-08-19T04:58:46;10.13;;;9.23;;
20427;SDS011;10373;49.768;18.302;2022-08-19T05:01:13;10.93;;;9.80;;
20427;SDS011;10373;49.768;18.302;2022-08-19T05:03:42;12.90;;;10.35;;
20427;SDS011;10373;49.768;18.302;2022-08-19T05:06:09;10.70;;;9.70;;
20427;SDS011;10373;49.768;18.302;2022-08-19T05:08:37;10.50;;;9.60;;
20427;SDS011;10373;49.768;18.302;2022-08-19T05:11:07;11.23;;;10.13;;
20427;SDS011;10373;49.768;18.302;2022-08-19T05:13:36;10.57;;;9.65;;
20427;SDS011;10373;49.768;18.302;2022-08-19T05:16:02;11.35;;;9.93;;
20427;SDS011;10373;49.768;18.302;2022-08-19T05:18:28;10.35;;;9.45;;
20427;SDS011;10373;49.768;18.302;2022-08-19T05:21:13;10.32;;;9.32;;
20427;SDS011;10373;49.768;18.302;2022-08-19T05:23:59;10.07;;;9.18;;
20427;SDS011;10373;49.768;18.302;2022-08-19T05:26:25;11.25;;;10.15;;
20427;SDS011;10373;49.768;18.302;2022-08-19T05:28:52;10.70;;;9.70;;
20427;SDS011;10373;49.768;18.302;2022-08-19T05:31:19;10.43;;;9.48;;
20427;SDS011;10373;49.768;18.302;2022-08-19T05:33:45;11.05;;;10.00;;
20427;SDS011;10373;49.768;18.302;2022-08-19T05:36:11;10.35;;;9.27;;
20427;SDS011;10373;49.768;18.302;2022-08-19T05:38:38;10.25;;;9.10;;
20427;SDS011;10373;49.768;18.302;2022-08-19T05:41:08;9.73;;;8.93;;
20427;SDS011;10373;49.768;18.302;2022-08-19T05:43:35;10.15;;;9.25;;
20427;SDS011;10373;49.768;18.302;2022-08-19T05:46:02;9.38;;;8.55;;
20427;SDS011;10373;49.768;18.302;2022-08-19T05:48:34;10.10;;;9.25;;
20427;SDS011;10373;49.768;18.302;2022-08-19T05:51:04;10.25;;;9.25;;
20427;SDS011;10373;49.768;18.302;2022-08-19T05:53:33;9.88;;;8.85;;
20427;SDS011;10373;49.768;18.302;2022-08-19T05:56:11;9.40;;;8.60;;
20427;SDS011;10373;49.768;18.302;2022-08-19T05:58:41;9.70;;;8.68;;
20427;SDS011;10373;49.768;18.302;2022-08-19T06:01:11;9.10;;;8.30;;
20427;SDS011;10373;49.768;18.302;2022-08-19T06:03:40;9.68;;;8.88;;
20427;SDS011;10373;49.768;18.302;2022-08-19T06:06:07;9.80;;;8.90;;
20427;SDS011;10373;49.768;18.302;2022-08-19T06:08:37;9.90;;;9.02;;
20427;SDS011;10373;49.768;18.302;2022-08-19T06:14:10;9.63;;;8.73;;
20427;SDS011;10373;49.768;18.302;2022-08-19T06:16:39;10.13;;;9.15;;
20427;SDS011;10373;49.768;18.302;2022-08-19T06:19:07;10.63;;;9.63;;
20427;SDS011;10373;49.768;18.302;2022-08-19T06:21:35;8.48;;;7.70;;
20427;SDS011;10373;49.768;18.302;2022-08-19T06:24:04;9.57;;;8.68;;
20427;SDS011;10373;49.768;18.302;2022-08-19T06:26:33;8.93;;;8.13;;
20427;SDS011;10373;49.768;18.302;2022-08-19T06:29:00;8.95;;;8.05;;
20427;SDS011;10373;49.768;18.302;2022-08-19T06:31:27;9.60;;;8.70;;
20427;SDS011;10373;49.768;18.302;2022-08-19T06:33:56;8.27;;;7.47;;
20427;SDS011;10373;49.768;18.302;2022-08-19T06:36:23;8.32;;;7.63;;
20427;SDS011;10373;49.768;18.302;2022-08-19T06:39:04;8.57;;;7.88;;
20427;SDS011;10373;49.768;18.302;2022-08-19T06:41:42;8.77;;;8.07;;
20427;SDS011;10373;49.768;18.302;2022-08-19T06:44:10;8.43;;;7.65;;
20427;SDS011;10373;49.768;18.302;2022-08-19T06:46:37;8.57;;;7.68;;
20427;SDS011;10373;49.768;18.302;2022-08-19T06:49:05;8.77;;;7.88;;
20427;SDS011;10373;49.768;18.302;2022-08-19T06:51:33;8.55;;;7.75;;
20427;SDS011;10373;49.768;18.302;2022-08-19T06:54:00;8.93;;;8.13;;
20427;SDS011;10373;49.768;18.302;2022-08-19T06:56:28;7.53;;;6.82;;
20427;SDS011;10373;49.768;18.302;2022-08-19T06:58:57;7.38;;;6.70;;
20427;SDS011;10373;49.768;18.302;2022-08-19T07:01:23;7.47;;;6.57;;
20427;SDS011;10373;49.768;18.302;2022-08-19T07:03:49;6.13;;;5.63;;
20427;SDS011;10373;49.768;18.302;2022-08-19T07:06:16;6.65;;;6.05;;
20427;SDS011;10373;49.768;18.302;2022-08-19T07:08:44;8.05;;;6.85;;
20427;SDS011;10373;49.768;18.302;2022-08-19T07:11:13;7.07;;;5.97;;
20427;SDS011;10373;49.768;18.302;2022-08-19T07:13:41;7.35;;;6.68;;
20427;SDS011;10373;49.768;18.302;2022-08-19T07:16:10;8.05;;;7.25;;
20427;SDS011;10373;49.768;18.302;2022-08-19T07:18:40;7.63;;;6.63;;
20427;SDS011;10373;49.768;18.302;2022-08-19T07:21:07;8.52;;;6.85;;
20427;SDS011;10373;49.768;18.302;2022-08-19T07:23:35;7.82;;;7.13;;
20427;SDS011;10373;49.768;18.302;2022-08-19T07:26:06;6.75;;;6.13;;
20427;SDS011;10373;49.768;18.302;2022-08-19T07:28:40;5.70;;;5.20;;
20427;SDS011;10373;49.768;18.302;2022-08-19T07:31:08;5.70;;;5.20;;
20427;SDS011;10373;49.768;18.302;2022-08-19T07:33:36;4.80;;;4.40;;
20427;SDS011;10373;49.768;18.302;2022-08-19T07:36:05;5.32;;;3.95;;
20427;SDS011;10373;49.768;18.302;2022-08-19T07:38:33;4.55;;;3.97;;
20427;SDS011;10373;49.768;18.302;2022-08-19T07:40:59;4.32;;;3.92;;
20427;SDS011;10373;49.768;18.302;2022-08-19T07:43:26;4.03;;;3.72;;
20427;SDS011;10373;49.768;18.302;2022-08-19T07:45:52;3.80;;;3.50;;
20427;SDS011;10373;49.768;18.302;2022-08-19T07:48:21;4.55;;;3.88;;
20427;SDS011;10373;49.768;18.302;2022-08-19T07:50:55;4.40;;;4.00;;
20427;SDS011;10373;49.768;18.302;2022-08-19T07:53:27;5.18;;;4.65;;
20427;SDS011;10373;49.768;18.302;2022-08-19T07:55:54;5.30;;;4.80;;
20427;SDS011;10373;49.768;18.302;2022-08-19T07:58:29;8.00;;;6.32;;
20427;SDS011;10373;49.768;18.302;2022-08-19T08:00:56;9.00;;;8.07;;
20427;SDS011;10373;49.768;18.302;2022-08-19T08:03:22;9.10;;;8.10;;
20427;SDS011;10373;49.768;18.302;2022-08-19T08:06:09;9.07;;;8.00;;
20427;SDS011;10373;49.768;18.302;2022-08-19T08:08:53;7.72;;;6.95;;
20427;SDS011;10373;49.768;18.302;2022-08-19T08:14:04;7.38;;;6.60;;
20427;SDS011;10373;49.768;18.302;2022-08-19T08:16:34;7.57;;;6.78;;
20427;SDS011;10373;49.768;18.302;2022-08-19T08:19:03;10.18;;;7.78;;
20427;SDS011;10373;49.768;18.302;2022-08-19T08:21:30;8.93;;;7.70;;
20427;SDS011;10373;49.768;18.302;2022-08-19T08:23:57;7.50;;;6.80;;
20427;SDS011;10373;49.768;18.302;2022-08-19T08:26:23;7.60;;;6.70;;
20427;SDS011;10373;49.768;18.302;2022-08-19T08:28:50;7.60;;;6.25;;
20427;SDS011;10373;49.768;18.302;2022-08-19T08:31:17;7.60;;;6.80;;
20427;SDS011;10373;49.768;18.302;2022-08-19T08:33:44;8.10;;;6.55;;
20427;SDS011;10373;49.768;18.302;2022-08-19T08:36:11;8.30;;;6.70;;
20427;SDS011;10373;49.768;18.302;2022-08-19T08:38:38;10.35;;;7.35;;
20427;SDS011;10373;49.768;18.302;2022-08-19T08:41:21;7.13;;;6.40;;
20427;SDS011;10373;49.768;18.302;2022-08-19T08:44:11;7.47;;;6.65;;
20427;SDS011;10373;49.768;18.302;2022-08-19T08:46:42;9.13;;;6.65;;
20427;SDS011;10373;49.768;18.302;2022-08-19T08:49:31;10.95;;;7.53;;
20427;SDS011;10373;49.768;18.302;2022-08-19T08:52:03;8.93;;;6.38;;
20427;SDS011;10373;49.768;18.302;2022-08-19T08:54:55;10.35;;;7.10;;
20427;SDS011;10373;49.768;18.302;2022-08-19T08:57:27;9.40;;;6.10;;
20427;SDS011;10373;49.768;18.302;2022-08-19T08:59:53;11.38;;;6.90;;
20427;SDS011;10373;49.768;18.302;2022-08-19T09:02:20;6.22;;;5.63;;
20427;SDS011;10373;49.768;18.302;2022-08-19T09:04:46;7.57;;;6.20;;
20427;SDS011;10373;49.768;18.302;2022-08-19T09:09:39;6.05;;;5.45;;
20427;SDS011;10373;49.768;18.302;2022-08-19T09:14:53;7.32;;;5.55;;
20427;SDS011;10373;49.768;18.302;2022-08-19T09:17:23;6.60;;;5.20;;
20427;SDS011;10373;49.768;18.302;2022-08-19T09:19:59;6.25;;;4.57;;
20427;SDS011;10373;49.768;18.302;2022-08-19T09:22:32;6.40;;;5.32;;
20427;SDS011;10373;49.768;18.302;2022-08-19T09:24:58;5.05;;;4.55;;
20427;SDS011;10373;49.768;18.302;2022-08-19T09:27:25;6.47;;;4.85;;
20427;SDS011;10373;49.768;18.302;2022-08-19T09:29:52;5.75;;;4.80;;
20427;SDS011;10373;49.768;18.302;2022-08-19T09:32:19;5.93;;;5.00;;
20427;SDS011;10373;49.768;18.302;2022-08-19T09:34:45;5.68;;;4.65;;
20427;SDS011;10373;49.768;18.302;2022-08-19T09:37:12;5.13;;;4.55;;
20427;SDS011;10373;49.768;18.302;2022-08-19T09:39:38;5.63;;;4.95;;
20427;SDS011;10373;49.768;18.302;2022-08-19T09:42:06;6.15;;;5.32;;
20427;SDS011;10373;49.768;18.302;2022-08-19T09:44:37;8.82;;;5.05;;
20427;SDS011;10373;49.768;18.302;2022-08-19T09:47:04;5.70;;;5.05;;
20427;SDS011;10373;49.768;18.302;2022-08-19T09:49:30;6.32;;;5.10;;
20427;SDS011;10373;49.768;18.302;2022-08-19T09:51:56;5.32;;;4.75;;
20427;SDS011;10373;49.768;18.302;2022-08-19T09:54:22;5.18;;;4.45;;
20427;SDS011;10373;49.768;18.302;2022-08-19T09:56:49;5.32;;;4.50;;
20427;SDS011;10373;49.768;18.302;2022-08-19T09:59:15;4.80;;;4.38;;
20427;SDS011;10373;49.768;18.302;2022-08-19T10:01:40;8.48;;;4.72;;
20427;SDS011;10373;49.768;18.302;2022-08-19T10:04:06;5.88;;;4.63;;
20427;SDS011;10373;49.768;18.302;2022-08-19T10:06:36;5.47;;;4.55;;
20427;SDS011;10373;49.768;18.302;2022-08-19T10:09:05;5.80;;;4.97;;
20427;SDS011;10373;49.768;18.302;2022-08-19T10:11:32;5.35;;;4.20;;
20427;SDS011;10373;49.768;18.302;2022-08-19T10:14:00;8.95;;;4.78;;
20427;SDS011;10373;49.768;18.302;2022-08-19T10:16:26;5.03;;;4.53;;
20427;SDS011;10373;49.768;18.302;2022-08-19T10:18:53;6.57;;;4.53;;
20427;SDS011;10373;49.768;18.302;2022-08-19T10:21:26;5.15;;;4.20;;
20427;SDS011;10373;49.768;18.302;2022-08-19T10:23:56;6.43;;;4.65;;
20427;SDS011;10373;49.768;18.302;2022-08-19T10:26:33;7.10;;;4.43;;
20427;SDS011;10373;49.768;18.302;2022-08-19T10:29:08;7.43;;;4.57;;
20427;SDS011;10373;49.768;18.302;2022-08-19T10:31:43;5.03;;;3.83;;
20427;SDS011;10373;49.768;18.302;2022-08-19T10:34:15;5.45;;;4.40;;
20427;SDS011;10373;49.768;18.302;2022-08-19T10:36:45;5.70;;;4.38;;
20427;SDS011;10373;49.768;18.302;2022-08-19T10:39:11;5.07;;;4.00;;
20427;SDS011;10373;49.768;18.302;2022-08-19T10:41:40;6.70;;;4.70;;
20427;SDS011;10373;49.768;18.302;2022-08-19T10:44:09;6.15;;;4.88;;
20427;SDS011;10373;49.768;18.302;2022-08-19T10:46:37;6.30;;;4.90;;
20427;SDS011;10373;49.768;18.302;2022-08-19T10:49:06;4.63;;;4.10;;
20427;SDS011;10373;49.768;18.302;2022-08-19T10:51:34;5.45;;;4.70;;
20427;SDS011;10373;49.768;18.302;2022-08-19T10:54:19;7.50;;;4.38;;
20427;SDS011;10373;49.768;18.302;2022-08-19T10:56:45;5.68;;;4.28;;
20427;SDS011;10373;49.768;18.302;2022-08-19T10:59:17;4.40;;;4.00;;
20427;SDS011;10373;49.768;18.302;2022-08-19T11:01:49;4.70;;;4.30;;
20427;SDS011;10373;49.768;18.302;2022-08-19T11:04:16;5.10;;;4.60;;
20427;SDS011;10373;49.768;18.302;2022-08-19T11:06:44;5.85;;;5.28;;
20427;SDS011;10373;49.768;18.302;2022-08-19T11:09:11;6.05;;;4.95;;
20427;SDS011;10373;49.768;18.302;2022-08-19T11:11:39;4.35;;;3.83;;
20427;SDS011;10373;49.768;18.302;2022-08-19T11:14:10;6.40;;;5.03;;
20427;SDS011;10373;49.768;18.302;2022-08-19T11:16:38;4.85;;;4.10;;
20427;SDS011;10373;49.768;18.302;2022-08-19T11:19:06;7.68;;;4.55;;
20427;SDS011;10373;49.768;18.302;2022-08-19T11:21:34;5.80;;;4.43;;
20427;SDS011;10373;49.768;18.302;2022-08-19T11:24:07;5.65;;;4.82;;
20427;SDS011;10373;49.768;18.302;2022-08-19T11:26:35;6.47;;;4.32;;
20427;SDS011;10373;49.768;18.302;2022-08-19T11:29:02;6.43;;;5.00;;
20427;SDS011;10373;49.768;18.302;2022-08-19T11:31:31;4.45;;;4.10;;
20427;SDS011;10373;49.768;18.302;2022-08-19T11:34:01;6.47;;;5.15;;
20427;SDS011;10373;49.768;18.302;2022-08-19T11:36:29;7.10;;;5.05;;
20427;SDS011;10373;49.768;18.302;2022-08-19T11:38:57;5.47;;;4.72;;
20427;SDS011;10373;49.768;18.302;2022-08-19T11:41:23;5.05;;;4.55;;
20427;SDS011;10373;49.768;18.302;2022-08-19T11:43:50;6.28;;;4.90;;
20427;SDS011;10373;49.768;18.302;2022-08-19T11:46:19;6.80;;;4.82;;
20427;SDS011;10373;49.768;18.302;2022-08-19T11:48:44;5.60;;;4.78;;
20427;SDS011;10373;49.768;18.302;2022-08-19T11:51:12;5.95;;;4.32;;
20427;SDS011;10373;49.768;18.302;2022-08-19T11:53:39;4.28;;;3.85;;
20427;SDS011;10373;49.768;18.302;2022-08-19T11:56:06;8.75;;;4.50;;
20427;SDS011;10373;49.768;18.302;2022-08-19T11:58:33;6.20;;;4.47;;
20427;SDS011;10373;49.768;18.302;2022-08-19T12:00:59;11.32;;;4.75;;
20427;SDS011;10373;49.768;18.302;2022-08-19T12:03:25;5.80;;;4.85;;
20427;SDS011;10373;49.768;18.302;2022-08-19T12:05:51;5.15;;;4.40;;
20427;SDS011;10373;49.768;18.302;2022-08-19T12:08:17;5.47;;;4.13;;
20427;SDS011;10373;49.768;18.302;2022-08-19T12:10:43;4.57;;;3.70;;
20427;SDS011;10373;49.768;18.302;2022-08-19T12:13:10;5.28;;;4.00;;
20427;SDS011;10373;49.768;18.302;2022-08-19T12:15:40;5.20;;;3.83;;
20427;SDS011;10373;49.768;18.302;2022-08-19T12:18:06;7.45;;;4.40;;
20427;SDS011;10373;49.768;18.302;2022-08-19T12:20:37;6.10;;;4.28;;
20427;SDS011;10373;49.768;18.302;2022-08-19T12:23:04;6.78;;;4.32;;
20427;SDS011;10373;49.768;18.302;2022-08-19T12:29:04;3.90;;;3.50;;
20427;SDS011;10373;49.768;18.302;2022-08-19T12:31:30;6.53;;;3.70;;
20427;SDS011;10373;49.768;18.302;2022-08-19T12:33:57;5.20;;;4.28;;
20427;SDS011;10373;49.768;18.302;2022-08-19T12:36:23;5.65;;;4.45;;
20427;SDS011;10373;49.768;18.302;2022-08-19T12:38:50;5.35;;;4.10;;
20427;SDS011;10373;49.768;18.302;2022-08-19T12:41:17;5.80;;;3.90;;
20427;SDS011;10373;49.768;18.302;2022-08-19T12:43:43;4.07;;;3.67;;
20427;SDS011;10373;49.768;18.302;2022-08-19T12:46:10;4.70;;;3.95;;
20427;SDS011;10373;49.768;18.302;2022-08-19T12:48:36;4.30;;;3.90;;
20427;SDS011;10373;49.768;18.302;2022-08-19T12:51:11;4.15;;;3.53;;
20427;SDS011;10373;49.768;18.302;2022-08-19T12:53:41;6.45;;;4.20;;
20427;SDS011;10373;49.768;18.302;2022-08-19T12:56:07;9.18;;;4.88;;
20427;SDS011;10373;49.768;18.302;2022-08-19T12:58:34;5.72;;;4.50;;
20427;SDS011;10373;49.768;18.302;2022-08-19T13:01:05;8.35;;;4.10;;
20427;SDS011;10373;49.768;18.302;2022-08-19T13:03:35;4.57;;;3.58;;
20427;SDS011;10373;49.768;18.302;2022-08-19T13:06:01;4.40;;;4.00;;
20427;SDS011;10373;49.768;18.302;2022-08-19T13:08:27;4.43;;;3.65;;
20427;SDS011;10373;49.768;18.302;2022-08-19T13:10:53;5.30;;;3.90;;
20427;SDS011;10373;49.768;18.302;2022-08-19T13:13:19;5.07;;;4.07;;
20427;SDS011;10373;49.768;18.302;2022-08-19T13:15:45;7.78;;;3.65;;
20427;SDS011;10373;49.768;18.302;2022-08-19T13:18:11;9.65;;;4.10;;
20427;SDS011;10373;49.768;18.302;2022-08-19T13:20:37;6.82;;;4.20;;
20427;SDS011;10373;49.768;18.302;2022-08-19T13:23:05;6.70;;;4.22;;
20427;SDS011;10373;49.768;18.302;2022-08-19T13:25:31;5.13;;;3.47;;
20427;SDS011;10373;49.768;18.302;2022-08-19T13:27:58;8.30;;;3.85;;
20427;SDS011;10373;49.768;18.302;2022-08-19T13:30:24;8.88;;;4.28;;
20427;SDS011;10373;49.768;18.302;2022-08-19T13:33:08;6.40;;;4.15;;
20427;SDS011;10373;49.768;18.302;2022-08-19T13:35:56;8.27;;;4.10;;
20427;SDS011;10373;49.768;18.302;2022-08-19T13:38:23;6.63;;;3.53;;
20427;SDS011;10373;49.768;18.302;2022-08-19T13:40:50;5.60;;;3.75;;
20427;SDS011;10373;49.768;18.302;2022-08-19T13:43:18;5.18;;;3.83;;
20427;SDS011;10373;49.768;18.302;2022-08-19T13:45:47;7.72;;;3.63;;
20427;SDS011;10373;49.768;18.302;2022-08-19T13:48:13;8.57;;;4.57;;
20427;SDS011;10373;49.768;18.302;2022-08-19T13:50:41;5.63;;;4.18;;
20427;SDS011;10373;49.768;18.302;2022-08-19T13:53:09;8.80;;;4.10;;
20427;SDS011;10373;49.768;18.302;2022-08-19T13:55:39;5.40;;;3.97;;
20427;SDS011;10373;49.768;18.302;2022-08-19T13:58:06;7.63;;;4.53;;
20427;SDS011;10373;49.768;18.302;2022-08-19T14:00:34;7.90;;;4.60;;
20427;SDS011;10373;49.768;18.302;2022-08-19T14:03:03;6.28;;;4.30;;
20427;SDS011;10373;49.768;18.302;2022-08-19T14:05:30;7.43;;;4.38;;
20427;SDS011;10373;49.768;18.302;2022-08-19T14:07:56;6.13;;;4.20;;
20427;SDS011;10373;49.768;18.302;2022-08-19T14:10:23;9.07;;;5.10;;
20427;SDS011;10373;49.768;18.302;2022-08-19T14:12:52;7.60;;;5.25;;
20427;SDS011;10373;49.768;18.302;2022-08-19T14:15:20;6.47;;;4.57;;
20427;SDS011;10373;49.768;18.302;2022-08-19T14:17:48;6.47;;;4.25;;
20427;SDS011;10373;49.768;18.302;2022-08-19T14:20:14;6.45;;;4.43;;
20427;SDS011;10373;49.768;18.302;2022-08-19T14:22:40;7.38;;;4.03;;
20427;SDS011;10373;49.768;18.302;2022-08-19T14:25:08;6.30;;;4.32;;
20427;SDS011;10373;49.768;18.302;2022-08-19T14:27:36;5.22;;;4.10;;
20427;SDS011;10373;49.768;18.302;2022-08-19T14:30:06;4.88;;;3.75;;
